sensor_id;sensor_type;location;lat;lon;timestamp;P1;durP1;ratioP1;P2;durP2;ratioP2
24739;SDS011;45234;48.148;17.128;2023-04-03T00:00:50;3.92;;;2.95;;
24739;SDS011;45234;48.148;17.128;2023-04-03T00:03:17;3.88;;;2.55;;
24739;SDS011;45234;48.148;17.128;2023-04-03T00:05:45;3.72;;;3.03;;
24739;SDS011;45234;48.148;17.128;2023-04-03T00:08:13;3.65;;;2.53;;
24739;SDS011;45234;48.148;17.128;2023-04-03T00:10:40;3.45;;;3.05;;
24739;SDS011;45234;48.148;17.128;2023-04-03T00:13:07;3.78;;;2.28;;
24739;SDS011;45234;48.148;17.128;2023-04-03T00:15:34;5.18;;;3.30;;
24739;SDS011;45234;48.148;17.128;2023-04-03T00:18:04;4.43;;;3.10;;
24739;SDS011;45234;48.148;17.128;2023-04-03T00:20:31;4.05;;;2.95;;
24739;SDS011;45234;48.148;17.128;2023-04-03T00:22:59;4.03;;;3.05;;
24739;SDS011;45234;48.148;17.128;2023-04-03T00:25:27;4.97;;;3.08;;
24739;SDS011;45234;48.148;17.128;2023-04-03T00:27:54;4.20;;;2.97;;
24739;SDS011;45234;48.148;17.128;2023-04-03T00:30:21;3.72;;;2.83;;
24739;SDS011;45234;48.148;17.128;2023-04-03T00:32:49;4.38;;;2.85;;
24739;SDS011;45234;48.148;17.128;2023-04-03T00:35:18;4.07;;;3.15;;
24739;SDS011;45234;48.148;17.128;2023-04-03T00:37:46;4.80;;;3.20;;
24739;SDS011;45234;48.148;17.128;2023-04-03T00:40:16;4.32;;;2.85;;
24739;SDS011;45234;48.148;17.128;2023-04-03T00:42:44;3.90;;;2.75;;
24739;SDS011;45234;48.148;17.128;2023-04-03T00:45:33;6.80;;;2.50;;
24739;SDS011;45234;48.148;17.128;2023-04-03T00:48:08;3.25;;;2.80;;
24739;SDS011;45234;48.148;17.128;2023-04-03T00:50:40;4.13;;;2.80;;
24739;SDS011;45234;48.148;17.128;2023-04-03T00:53:10;5.18;;;3.15;;
24739;SDS011;45234;48.148;17.128;2023-04-03T00:55:40;4.93;;;3.00;;
24739;SDS011;45234;48.148;17.128;2023-04-03T00:58:08;4.60;;;2.92;;
24739;SDS011;45234;48.148;17.128;2023-04-03T01:00:37;4.88;;;2.70;;
24739;SDS011;45234;48.148;17.128;2023-04-03T01:03:07;4.25;;;2.60;;
24739;SDS011;45234;48.148;17.128;2023-04-03T01:05:36;3.97;;;3.03;;
24739;SDS011;45234;48.148;17.128;2023-04-03T01:08:03;3.60;;;2.92;;
24739;SDS011;45234;48.148;17.128;2023-04-03T01:10:32;3.92;;;3.17;;
24739;SDS011;45234;48.148;17.128;2023-04-03T01:13:00;3.55;;;2.78;;
24739;SDS011;45234;48.148;17.128;2023-04-03T01:15:27;3.78;;;2.67;;
24739;SDS011;45234;48.148;17.128;2023-04-03T01:18:01;3.20;;;2.42;;
24739;SDS011;45234;48.148;17.128;2023-04-03T01:25:44;4.18;;;2.80;;
24739;SDS011;45234;48.148;17.128;2023-04-03T01:28:23;4.00;;;2.95;;
24739;SDS011;45234;48.148;17.128;2023-04-03T01:30:55;4.05;;;2.88;;
24739;SDS011;45234;48.148;17.128;2023-04-03T01:33:27;5.13;;;3.05;;
24739;SDS011;45234;48.148;17.128;2023-04-03T01:35:55;4.82;;;3.13;;
24739;SDS011;45234;48.148;17.128;2023-04-03T01:38:22;4.00;;;2.90;;
24739;SDS011;45234;48.148;17.128;2023-04-03T01:40:49;6.05;;;3.15;;
24739;SDS011;45234;48.148;17.128;2023-04-03T01:43:16;5.75;;;2.92;;
24739;SDS011;45234;48.148;17.128;2023-04-03T01:45:44;3.65;;;2.78;;
24739;SDS011;45234;48.148;17.128;2023-04-03T01:48:12;4.32;;;2.80;;
24739;SDS011;45234;48.148;17.128;2023-04-03T01:50:39;4.45;;;2.83;;
24739;SDS011;45234;48.148;17.128;2023-04-03T01:53:06;3.90;;;3.00;;
24739;SDS011;45234;48.148;17.128;2023-04-03T01:55:33;5.20;;;3.20;;
24739;SDS011;45234;48.148;17.128;2023-04-03T01:58:00;4.45;;;3.45;;
24739;SDS011;45234;48.148;17.128;2023-04-03T02:00:27;5.47;;;3.70;;
24739;SDS011;45234;48.148;17.128;2023-04-03T02:02:54;4.50;;;3.58;;
24739;SDS011;45234;48.148;17.128;2023-04-03T02:05:21;5.82;;;3.17;;
24739;SDS011;45234;48.148;17.128;2023-04-03T02:07:48;4.53;;;3.70;;
24739;SDS011;45234;48.148;17.128;2023-04-03T02:10:17;4.80;;;3.42;;
24739;SDS011;45234;48.148;17.128;2023-04-03T02:12:44;4.65;;;2.90;;
24739;SDS011;45234;48.148;17.128;2023-04-03T02:15:11;4.03;;;3.05;;
24739;SDS011;45234;48.148;17.128;2023-04-03T02:17:38;3.95;;;3.40;;
24739;SDS011;45234;48.148;17.128;2023-04-03T02:20:06;5.22;;;3.20;;
24739;SDS011;45234;48.148;17.128;2023-04-03T02:22:33;4.78;;;3.10;;
24739;SDS011;45234;48.148;17.128;2023-04-03T02:25:01;3.97;;;3.33;;
24739;SDS011;45234;48.148;17.128;2023-04-03T02:27:28;5.20;;;3.53;;
24739;SDS011;45234;48.148;17.128;2023-04-03T02:29:54;7.47;;;3.58;;
24739;SDS011;45234;48.148;17.128;2023-04-03T02:32:21;4.45;;;3.20;;
24739;SDS011;45234;48.148;17.128;2023-04-03T02:34:49;5.90;;;4.03;;
24739;SDS011;45234;48.148;17.128;2023-04-03T02:37:16;7.07;;;3.75;;
24739;SDS011;45234;48.148;17.128;2023-04-03T02:39:44;4.85;;;3.22;;
24739;SDS011;45234;48.148;17.128;2023-04-03T02:42:11;4.03;;;3.17;;
24739;SDS011;45234;48.148;17.128;2023-04-03T02:44:40;4.45;;;3.63;;
24739;SDS011;45234;48.148;17.128;2023-04-03T02:47:08;6.07;;;3.85;;
24739;SDS011;45234;48.148;17.128;2023-04-03T02:49:35;5.75;;;4.20;;
24739;SDS011;45234;48.148;17.128;2023-04-03T02:52:03;6.05;;;4.28;;
24739;SDS011;45234;48.148;17.128;2023-04-03T02:54:31;4.60;;;4.05;;
24739;SDS011;45234;48.148;17.128;2023-04-03T02:57:03;6.75;;;5.32;;
24739;SDS011;45234;48.148;17.128;2023-04-03T02:59:31;6.43;;;5.03;;
24739;SDS011;45234;48.148;17.128;2023-04-03T03:01:57;7.03;;;4.38;;
24739;SDS011;45234;48.148;17.128;2023-04-03T03:04:24;6.78;;;4.38;;
24739;SDS011;45234;48.148;17.128;2023-04-03T03:06:51;7.47;;;5.28;;
24739;SDS011;45234;48.148;17.128;2023-04-03T03:09:18;5.88;;;4.85;;
24739;SDS011;45234;48.148;17.128;2023-04-03T03:11:45;6.63;;;4.60;;
24739;SDS011;45234;48.148;17.128;2023-04-03T03:14:12;7.30;;;5.20;;
24739;SDS011;45234;48.148;17.128;2023-04-03T03:16:39;8.85;;;4.43;;
24739;SDS011;45234;48.148;17.128;2023-04-03T03:19:06;5.93;;;4.32;;
24739;SDS011;45234;48.148;17.128;2023-04-03T03:21:34;5.60;;;4.03;;
24739;SDS011;45234;48.148;17.128;2023-04-03T03:24:01;7.45;;;5.13;;
24739;SDS011;45234;48.148;17.128;2023-04-03T03:26:28;7.97;;;4.30;;
24739;SDS011;45234;48.148;17.128;2023-04-03T03:28:55;5.82;;;4.22;;
24739;SDS011;45234;48.148;17.128;2023-04-03T03:31:22;4.53;;;3.83;;
24739;SDS011;45234;48.148;17.128;2023-04-03T03:33:49;7.15;;;3.67;;
24739;SDS011;45234;48.148;17.128;2023-04-03T03:36:17;4.63;;;3.55;;
24739;SDS011;45234;48.148;17.128;2023-04-03T03:38:44;4.88;;;3.35;;
24739;SDS011;45234;48.148;17.128;2023-04-03T03:41:12;5.70;;;4.00;;
24739;SDS011;45234;48.148;17.128;2023-04-03T03:43:40;4.57;;;3.13;;
24739;SDS011;45234;48.148;17.128;2023-04-03T03:46:08;6.47;;;3.55;;
24739;SDS011;45234;48.148;17.128;2023-04-03T03:48:35;4.97;;;3.38;;
24739;SDS011;45234;48.148;17.128;2023-04-03T03:51:02;4.65;;;3.95;;
24739;SDS011;45234;48.148;17.128;2023-04-03T03:53:33;6.03;;;4.22;;
24739;SDS011;45234;48.148;17.128;2023-04-03T03:56:04;4.80;;;3.47;;
24739;SDS011;45234;48.148;17.128;2023-04-03T03:58:35;6.00;;;4.63;;
24739;SDS011;45234;48.148;17.128;2023-04-03T04:01:03;6.63;;;4.03;;
24739;SDS011;45234;48.148;17.128;2023-04-03T04:03:39;8.20;;;5.25;;
24739;SDS011;45234;48.148;17.128;2023-04-03T04:06:09;7.60;;;4.60;;
24739;SDS011;45234;48.148;17.128;2023-04-03T04:08:37;7.45;;;5.43;;
24739;SDS011;45234;48.148;17.128;2023-04-03T04:11:06;7.05;;;5.10;;
24739;SDS011;45234;48.148;17.128;2023-04-03T04:13:34;7.68;;;4.95;;
24739;SDS011;45234;48.148;17.128;2023-04-03T04:16:02;7.20;;;4.93;;
24739;SDS011;45234;48.148;17.128;2023-04-03T04:18:31;7.03;;;5.38;;
24739;SDS011;45234;48.148;17.128;2023-04-03T04:20:57;7.07;;;4.95;;
24739;SDS011;45234;48.148;17.128;2023-04-03T04:23:25;6.93;;;5.05;;
24739;SDS011;45234;48.148;17.128;2023-04-03T04:25:52;10.07;;;5.20;;
24739;SDS011;45234;48.148;17.128;2023-04-03T04:28:20;9.15;;;5.40;;
24739;SDS011;45234;48.148;17.128;2023-04-03T04:30:51;7.95;;;5.38;;
24739;SDS011;45234;48.148;17.128;2023-04-03T04:33:20;7.97;;;5.43;;
24739;SDS011;45234;48.148;17.128;2023-04-03T04:35:47;8.88;;;5.95;;
24739;SDS011;45234;48.148;17.128;2023-04-03T04:38:17;8.20;;;5.40;;
24739;SDS011;45234;48.148;17.128;2023-04-03T04:40:44;6.40;;;5.15;;
24739;SDS011;45234;48.148;17.128;2023-04-03T04:43:11;8.68;;;5.60;;
24739;SDS011;45234;48.148;17.128;2023-04-03T04:45:41;7.22;;;5.25;;
24739;SDS011;45234;48.148;17.128;2023-04-03T04:48:09;10.25;;;5.25;;
24739;SDS011;45234;48.148;17.128;2023-04-03T04:50:36;7.40;;;5.47;;
24739;SDS011;45234;48.148;17.128;2023-04-03T04:53:03;5.78;;;4.63;;
24739;SDS011;45234;48.148;17.128;2023-04-03T04:55:29;8.40;;;5.57;;
24739;SDS011;45234;48.148;17.128;2023-04-03T04:57:56;7.43;;;4.93;;
24739;SDS011;45234;48.148;17.128;2023-04-03T05:00:23;7.70;;;5.50;;
24739;SDS011;45234;48.148;17.128;2023-04-03T05:02:51;9.77;;;5.78;;
24739;SDS011;45234;48.148;17.128;2023-04-03T05:05:18;8.52;;;5.47;;
24739;SDS011;45234;48.148;17.128;2023-04-03T05:07:45;8.27;;;5.65;;
24739;SDS011;45234;48.148;17.128;2023-04-03T05:10:13;11.45;;;5.68;;
24739;SDS011;45234;48.148;17.128;2023-04-03T05:12:40;10.18;;;5.57;;
24739;SDS011;45234;48.148;17.128;2023-04-03T05:15:07;9.77;;;5.53;;
24739;SDS011;45234;48.148;17.128;2023-04-03T05:17:35;7.43;;;5.07;;
24739;SDS011;45234;48.148;17.128;2023-04-03T05:20:04;7.55;;;4.88;;
24739;SDS011;45234;48.148;17.128;2023-04-03T05:22:32;7.30;;;4.80;;
24739;SDS011;45234;48.148;17.128;2023-04-03T05:25:04;8.50;;;4.93;;
24739;SDS011;45234;48.148;17.128;2023-04-03T05:27:33;5.80;;;4.03;;
24739;SDS011;45234;48.148;17.128;2023-04-03T05:30:00;6.78;;;5.05;;
24739;SDS011;45234;48.148;17.128;2023-04-03T05:32:29;7.50;;;5.25;;
24739;SDS011;45234;48.148;17.128;2023-04-03T05:35:32;6.57;;;4.65;;
24739;SDS011;45234;48.148;17.128;2023-04-03T05:38:01;7.03;;;4.65;;
24739;SDS011;45234;48.148;17.128;2023-04-03T05:40:29;6.05;;;4.22;;
24739;SDS011;45234;48.148;17.128;2023-04-03T05:42:56;7.00;;;5.32;;
24739;SDS011;45234;48.148;17.128;2023-04-03T05:45:27;12.23;;;4.97;;
24739;SDS011;45234;48.148;17.128;2023-04-03T05:47:56;8.60;;;5.05;;
24739;SDS011;45234;48.148;17.128;2023-04-03T05:50:23;6.47;;;4.47;;
24739;SDS011;45234;48.148;17.128;2023-04-03T05:52:52;8.18;;;4.78;;
24739;SDS011;45234;48.148;17.128;2023-04-03T05:55:23;9.73;;;4.90;;
24739;SDS011;45234;48.148;17.128;2023-04-03T05:57:50;5.95;;;4.47;;
24739;SDS011;45234;48.148;17.128;2023-04-03T06:00:18;8.00;;;4.60;;
24739;SDS011;45234;48.148;17.128;2023-04-03T06:02:55;8.15;;;5.47;;
24739;SDS011;45234;48.148;17.128;2023-04-03T06:05:23;7.75;;;4.68;;
24739;SDS011;45234;48.148;17.128;2023-04-03T06:07:50;7.43;;;4.38;;
24739;SDS011;45234;48.148;17.128;2023-04-03T06:10:17;8.30;;;4.95;;
24739;SDS011;45234;48.148;17.128;2023-04-03T06:12:44;7.57;;;5.40;;
24739;SDS011;45234;48.148;17.128;2023-04-03T06:15:10;7.18;;;4.82;;
24739;SDS011;45234;48.148;17.128;2023-04-03T06:17:38;5.88;;;4.25;;
24739;SDS011;45234;48.148;17.128;2023-04-03T06:20:06;7.03;;;4.47;;
24739;SDS011;45234;48.148;17.128;2023-04-03T06:22:33;8.77;;;4.47;;
24739;SDS011;45234;48.148;17.128;2023-04-03T06:25:01;6.93;;;4.82;;
24739;SDS011;45234;48.148;17.128;2023-04-03T06:27:42;6.35;;;4.60;;
24739;SDS011;45234;48.148;17.128;2023-04-03T06:30:09;5.88;;;4.10;;
24739;SDS011;45234;48.148;17.128;2023-04-03T06:32:39;8.50;;;4.45;;
24739;SDS011;45234;48.148;17.128;2023-04-03T06:35:06;7.43;;;4.72;;
24739;SDS011;45234;48.148;17.128;2023-04-03T06:37:34;5.68;;;3.53;;
24739;SDS011;45234;48.148;17.128;2023-04-03T06:40:01;5.57;;;4.25;;
24739;SDS011;45234;48.148;17.128;2023-04-03T06:42:29;5.47;;;4.47;;
24739;SDS011;45234;48.148;17.128;2023-04-03T06:45:06;5.75;;;4.72;;
24739;SDS011;45234;48.148;17.128;2023-04-03T06:47:35;5.47;;;4.05;;
24739;SDS011;45234;48.148;17.128;2023-04-03T06:50:02;5.00;;;4.45;;
24739;SDS011;45234;48.148;17.128;2023-04-03T06:52:29;8.25;;;4.57;;
24739;SDS011;45234;48.148;17.128;2023-04-03T06:54:56;5.18;;;4.07;;
24739;SDS011;45234;48.148;17.128;2023-04-03T06:57:25;5.60;;;4.07;;
24739;SDS011;45234;48.148;17.128;2023-04-03T06:59:53;5.15;;;4.35;;
24739;SDS011;45234;48.148;17.128;2023-04-03T07:02:25;5.00;;;3.95;;
24739;SDS011;45234;48.148;17.128;2023-04-03T07:04:52;6.07;;;4.20;;
24739;SDS011;45234;48.148;17.128;2023-04-03T07:07:20;8.18;;;4.07;;
24739;SDS011;45234;48.148;17.128;2023-04-03T07:09:47;6.30;;;3.67;;
24739;SDS011;45234;48.148;17.128;2023-04-03T07:12:15;5.80;;;4.10;;
24739;SDS011;45234;48.148;17.128;2023-04-03T07:14:42;5.25;;;3.90;;
24739;SDS011;45234;48.148;17.128;2023-04-03T07:17:09;6.20;;;3.95;;
24739;SDS011;45234;48.148;17.128;2023-04-03T07:19:36;6.57;;;3.50;;
24739;SDS011;45234;48.148;17.128;2023-04-03T07:22:03;5.63;;;4.13;;
24739;SDS011;45234;48.148;17.128;2023-04-03T07:24:33;8.23;;;4.13;;
24739;SDS011;45234;48.148;17.128;2023-04-03T07:27:01;5.22;;;3.53;;
24739;SDS011;45234;48.148;17.128;2023-04-03T07:29:30;4.93;;;3.80;;
24739;SDS011;45234;48.148;17.128;2023-04-03T07:31:57;4.82;;;3.55;;
24739;SDS011;45234;48.148;17.128;2023-04-03T07:34:29;4.53;;;4.00;;
24739;SDS011;45234;48.148;17.128;2023-04-03T07:36:56;4.93;;;3.78;;
24739;SDS011;45234;48.148;17.128;2023-04-03T07:39:23;4.63;;;3.33;;
24739;SDS011;45234;48.148;17.128;2023-04-03T07:41:50;5.47;;;3.88;;
24739;SDS011;45234;48.148;17.128;2023-04-03T07:44:17;5.68;;;3.33;;
24739;SDS011;45234;48.148;17.128;2023-04-03T07:46:44;4.78;;;3.83;;
24739;SDS011;45234;48.148;17.128;2023-04-03T07:49:12;4.32;;;3.28;;
24739;SDS011;45234;48.148;17.128;2023-04-03T07:51:41;6.43;;;3.55;;
24739;SDS011;45234;48.148;17.128;2023-04-03T07:54:08;6.18;;;3.47;;
24739;SDS011;45234;48.148;17.128;2023-04-03T07:56:35;5.20;;;2.90;;
24739;SDS011;45234;48.148;17.128;2023-04-03T07:59:02;5.07;;;3.30;;
24739;SDS011;45234;48.148;17.128;2023-04-03T08:01:28;3.63;;;3.00;;
24739;SDS011;45234;48.148;17.128;2023-04-03T08:03:58;3.20;;;2.90;;
24739;SDS011;45234;48.148;17.128;2023-04-03T08:06:27;8.73;;;3.38;;
24739;SDS011;45234;48.148;17.128;2023-04-03T08:09:11;5.28;;;2.95;;
24739;SDS011;45234;48.148;17.128;2023-04-03T08:11:43;4.20;;;2.80;;
24739;SDS011;45234;48.148;17.128;2023-04-03T08:14:10;3.03;;;2.47;;
24739;SDS011;45234;48.148;17.128;2023-04-03T08:16:43;5.10;;;2.97;;
24739;SDS011;45234;48.148;17.128;2023-04-03T08:19:11;5.18;;;3.10;;
24739;SDS011;45234;48.148;17.128;2023-04-03T08:21:50;14.18;;;2.72;;
24739;SDS011;45234;48.148;17.128;2023-04-03T08:24:17;4.75;;;2.78;;
24739;SDS011;45234;48.148;17.128;2023-04-03T08:26:43;9.98;;;2.90;;
24739;SDS011;45234;48.148;17.128;2023-04-03T08:29:10;5.38;;;2.58;;
24739;SDS011;45234;48.148;17.128;2023-04-03T08:31:37;7.13;;;3.10;;
24739;SDS011;45234;48.148;17.128;2023-04-03T08:34:04;4.47;;;2.55;;
24739;SDS011;45234;48.148;17.128;2023-04-03T08:36:31;3.35;;;2.35;;
24739;SDS011;45234;48.148;17.128;2023-04-03T08:38:58;5.75;;;2.90;;
24739;SDS011;45234;48.148;17.128;2023-04-03T08:41:35;4.13;;;2.40;;
24739;SDS011;45234;48.148;17.128;2023-04-03T08:44:14;3.58;;;2.20;;
24739;SDS011;45234;48.148;17.128;2023-04-03T08:49:21;6.55;;;2.90;;
24739;SDS011;45234;48.148;17.128;2023-04-03T08:51:55;4.88;;;2.60;;
24739;SDS011;45234;48.148;17.128;2023-04-03T08:54:30;5.47;;;2.83;;
24739;SDS011;45234;48.148;17.128;2023-04-03T08:57:01;5.05;;;2.92;;
24739;SDS011;45234;48.148;17.128;2023-04-03T08:59:34;3.60;;;2.90;;
24739;SDS011;45234;48.148;17.128;2023-04-03T09:02:21;6.38;;;3.15;;
24739;SDS011;45234;48.148;17.128;2023-04-03T09:04:54;4.32;;;2.28;;
24739;SDS011;45234;48.148;17.128;2023-04-03T09:07:25;5.65;;;2.80;;
24739;SDS011;45234;48.148;17.128;2023-04-03T09:10:02;3.25;;;2.17;;
24739;SDS011;45234;48.148;17.128;2023-04-03T09:12:39;3.28;;;2.20;;
24739;SDS011;45234;48.148;17.128;2023-04-03T09:25:15;5.97;;;3.10;;
24739;SDS011;45234;48.148;17.128;2023-04-03T09:28:00;2.92;;;2.22;;
24739;SDS011;45234;48.148;17.128;2023-04-03T09:30:28;3.17;;;2.17;;
24739;SDS011;45234;48.148;17.128;2023-04-03T09:32:56;4.80;;;2.97;;
24739;SDS011;45234;48.148;17.128;2023-04-03T09:35:25;6.63;;;2.75;;
24739;SDS011;45234;48.148;17.128;2023-04-03T09:40:41;6.75;;;2.70;;
24739;SDS011;45234;48.148;17.128;2023-04-03T09:46:16;5.35;;;2.67;;
24739;SDS011;45234;48.148;17.128;2023-04-03T09:49:18;3.80;;;3.03;;
24739;SDS011;45234;48.148;17.128;2023-04-03T09:51:45;5.55;;;3.25;;
24739;SDS011;45234;48.148;17.128;2023-04-03T09:57:08;5.75;;;2.83;;
24739;SDS011;45234;48.148;17.128;2023-04-03T09:59:39;6.28;;;3.17;;
24739;SDS011;45234;48.148;17.128;2023-04-03T10:02:40;5.00;;;2.70;;
24739;SDS011;45234;48.148;17.128;2023-04-03T10:05:28;3.47;;;2.85;;
24739;SDS011;45234;48.148;17.128;2023-04-03T10:10:46;4.25;;;2.63;;
24739;SDS011;45234;48.148;17.128;2023-04-03T10:13:28;6.38;;;2.72;;
24739;SDS011;45234;48.148;17.128;2023-04-03T10:16:03;6.63;;;3.70;;
24739;SDS011;45234;48.148;17.128;2023-04-03T10:21:44;4.05;;;2.63;;
24739;SDS011;45234;48.148;17.128;2023-04-03T10:24:37;5.65;;;2.85;;
24739;SDS011;45234;48.148;17.128;2023-04-03T10:30:49;7.95;;;2.42;;
24739;SDS011;45234;48.148;17.128;2023-04-03T10:33:18;4.80;;;2.50;;
24739;SDS011;45234;48.148;17.128;2023-04-03T10:44:13;4.65;;;2.90;;
24739;SDS011;45234;48.148;17.128;2023-04-03T10:46:47;4.78;;;3.10;;
24739;SDS011;45234;48.148;17.128;2023-04-03T10:52:12;5.60;;;2.42;;
24739;SDS011;45234;48.148;17.128;2023-04-03T10:55:02;3.17;;;2.50;;
24739;SDS011;45234;48.148;17.128;2023-04-03T10:57:37;2.90;;;2.30;;
24739;SDS011;45234;48.148;17.128;2023-04-03T11:00:06;5.43;;;2.72;;
24739;SDS011;45234;48.148;17.128;2023-04-03T11:03:50;5.13;;;2.65;;
24739;SDS011;45234;48.148;17.128;2023-04-03T11:06:08;7.10;;;3.28;;
24739;SDS011;45234;48.148;17.128;2023-04-03T11:11:21;4.40;;;2.85;;
24739;SDS011;45234;48.148;17.128;2023-04-03T11:13:56;4.70;;;3.05;;
24739;SDS011;45234;48.148;17.128;2023-04-03T11:16:33;6.97;;;3.38;;
24739;SDS011;45234;48.148;17.128;2023-04-03T11:19:20;5.25;;;2.40;;
24739;SDS011;45234;48.148;17.128;2023-04-03T11:24:56;6.20;;;2.45;;
24739;SDS011;45234;48.148;17.128;2023-04-03T11:27:33;4.38;;;2.78;;
24739;SDS011;45234;48.148;17.128;2023-04-03T11:30:15;7.90;;;3.08;;
24739;SDS011;45234;48.148;17.128;2023-04-03T11:33:05;6.18;;;2.83;;
24739;SDS011;45234;48.148;17.128;2023-04-03T11:35:37;4.22;;;2.40;;
24739;SDS011;45234;48.148;17.128;2023-04-03T11:38:14;3.33;;;2.95;;
24739;SDS011;45234;48.148;17.128;2023-04-03T11:40:53;6.72;;;2.90;;
24739;SDS011;45234;48.148;17.128;2023-04-03T11:45:58;4.03;;;2.97;;
24739;SDS011;45234;48.148;17.128;2023-04-03T11:53:43;6.85;;;3.50;;
24739;SDS011;45234;48.148;17.128;2023-04-03T12:01:45;7.18;;;3.35;;
24739;SDS011;45234;48.148;17.128;2023-04-03T12:04:13;6.88;;;3.55;;
24739;SDS011;45234;48.148;17.128;2023-04-03T12:06:47;4.97;;;3.55;;
24739;SDS011;45234;48.148;17.128;2023-04-03T12:12:49;4.28;;;3.30;;
24739;SDS011;45234;48.148;17.128;2023-04-03T12:17:52;5.40;;;3.58;;
24739;SDS011;45234;48.148;17.128;2023-04-03T12:23:33;6.72;;;3.60;;
24739;SDS011;45234;48.148;17.128;2023-04-03T12:26:25;5.82;;;3.55;;
24739;SDS011;45234;48.148;17.128;2023-04-03T12:31:46;6.35;;;3.40;;
24739;SDS011;45234;48.148;17.128;2023-04-03T12:34:31;4.15;;;3.20;;
24739;SDS011;45234;48.148;17.128;2023-04-03T12:40:03;8.55;;;3.22;;
24739;SDS011;45234;48.148;17.128;2023-04-03T12:45:50;4.63;;;3.35;;
24739;SDS011;45234;48.148;17.128;2023-04-03T12:48:25;5.05;;;3.20;;
24739;SDS011;45234;48.148;17.128;2023-04-03T12:50:54;4.25;;;3.60;;
24739;SDS011;45234;48.148;17.128;2023-04-03T12:53:27;4.38;;;3.33;;
24739;SDS011;45234;48.148;17.128;2023-04-03T12:58:50;6.40;;;3.88;;
24739;SDS011;45234;48.148;17.128;2023-04-03T13:01:22;6.45;;;3.22;;
24739;SDS011;45234;48.148;17.128;2023-04-03T13:03:55;4.20;;;3.42;;
24739;SDS011;45234;48.148;17.128;2023-04-03T13:06:24;6.20;;;3.40;;
24739;SDS011;45234;48.148;17.128;2023-04-03T13:09:20;8.02;;;3.90;;
24739;SDS011;45234;48.148;17.128;2023-04-03T13:12:00;5.10;;;3.65;;
24739;SDS011;45234;48.148;17.128;2023-04-03T13:14:37;4.25;;;3.08;;
24739;SDS011;45234;48.148;17.128;2023-04-03T13:17:15;6.07;;;3.22;;
24739;SDS011;45234;48.148;17.128;2023-04-03T13:19:42;7.18;;;3.78;;
24739;SDS011;45234;48.148;17.128;2023-04-03T13:25:09;6.72;;;2.95;;
24739;SDS011;45234;48.148;17.128;2023-04-03T13:27:40;5.95;;;2.78;;
24739;SDS011;45234;48.148;17.128;2023-04-03T13:32:47;6.05;;;2.97;;
24739;SDS011;45234;48.148;17.128;2023-04-03T13:38:04;7.78;;;2.80;;
24739;SDS011;45234;48.148;17.128;2023-04-03T13:40:48;4.47;;;3.40;;
24739;SDS011;45234;48.148;17.128;2023-04-03T13:43:18;5.22;;;3.33;;
24739;SDS011;45234;48.148;17.128;2023-04-03T13:48:38;4.65;;;2.90;;
24739;SDS011;45234;48.148;17.128;2023-04-03T13:51:28;4.22;;;2.78;;
24739;SDS011;45234;48.148;17.128;2023-04-03T13:53:56;6.32;;;2.88;;
24739;SDS011;45234;48.148;17.128;2023-04-03T13:56:37;7.68;;;2.70;;
24739;SDS011;45234;48.148;17.128;2023-04-03T14:04:11;3.88;;;2.00;;
24739;SDS011;45234;48.148;17.128;2023-04-03T14:06:44;3.60;;;2.10;;
24739;SDS011;45234;48.148;17.128;2023-04-03T14:09:12;6.50;;;2.95;;
24739;SDS011;45234;48.148;17.128;2023-04-03T14:11:40;5.88;;;2.17;;
24739;SDS011;45234;48.148;17.128;2023-04-03T14:14:16;4.45;;;2.00;;
24739;SDS011;45234;48.148;17.128;2023-04-03T14:16:55;5.90;;;1.95;;
24739;SDS011;45234;48.148;17.128;2023-04-03T14:19:27;3.45;;;2.10;;
24739;SDS011;45234;48.148;17.128;2023-04-03T14:21:58;4.55;;;2.00;;
24739;SDS011;45234;48.148;17.128;2023-04-03T14:24:26;3.08;;;2.00;;
24739;SDS011;45234;48.148;17.128;2023-04-03T14:26:54;3.55;;;1.75;;
24739;SDS011;45234;48.148;17.128;2023-04-03T14:29:21;2.25;;;1.48;;
24739;SDS011;45234;48.148;17.128;2023-04-03T14:31:49;2.95;;;1.50;;
24739;SDS011;45234;48.148;17.128;2023-04-03T14:34:25;7.88;;;1.80;;
24739;SDS011;45234;48.148;17.128;2023-04-03T14:36:51;6.40;;;1.40;;
24739;SDS011;45234;48.148;17.128;2023-04-03T14:39:19;8.07;;;2.17;;
24739;SDS011;45234;48.148;17.128;2023-04-03T14:41:45;4.05;;;1.60;;
24739;SDS011;45234;48.148;17.128;2023-04-03T14:44:12;3.15;;;1.35;;
24739;SDS011;45234;48.148;17.128;2023-04-03T14:46:41;3.85;;;2.00;;
24739;SDS011;45234;48.148;17.128;2023-04-03T14:49:22;5.43;;;2.53;;
24739;SDS011;45234;48.148;17.128;2023-04-03T14:51:52;5.10;;;1.83;;
24739;SDS011;45234;48.148;17.128;2023-04-03T14:54:20;3.65;;;1.70;;
24739;SDS011;45234;48.148;17.128;2023-04-03T14:56:51;5.78;;;2.33;;
24739;SDS011;45234;48.148;17.128;2023-04-03T14:59:19;4.55;;;2.58;;
24739;SDS011;45234;48.148;17.128;2023-04-03T15:01:47;5.28;;;2.17;;
24739;SDS011;45234;48.148;17.128;2023-04-03T15:04:15;6.47;;;1.83;;
24739;SDS011;45234;48.148;17.128;2023-04-03T15:06:45;3.95;;;1.67;;
24739;SDS011;45234;48.148;17.128;2023-04-03T15:09:24;6.32;;;2.20;;
24739;SDS011;45234;48.148;17.128;2023-04-03T15:11:54;1.98;;;1.13;;
24739;SDS011;45234;48.148;17.128;2023-04-03T15:14:21;4.55;;;2.00;;
24739;SDS011;45234;48.148;17.128;2023-04-03T15:17:01;3.55;;;1.58;;
24739;SDS011;45234;48.148;17.128;2023-04-03T15:19:31;4.68;;;1.85;;
24739;SDS011;45234;48.148;17.128;2023-04-03T15:24:30;3.30;;;1.80;;
24739;SDS011;45234;48.148;17.128;2023-04-03T15:26:57;4.68;;;1.70;;
24739;SDS011;45234;48.148;17.128;2023-04-03T15:29:25;3.72;;;1.50;;
24739;SDS011;45234;48.148;17.128;2023-04-03T15:31:52;5.50;;;1.60;;
24739;SDS011;45234;48.148;17.128;2023-04-03T15:34:19;4.97;;;1.70;;
24739;SDS011;45234;48.148;17.128;2023-04-03T15:36:47;4.25;;;1.77;;
24739;SDS011;45234;48.148;17.128;2023-04-03T15:39:15;3.00;;;1.70;;
24739;SDS011;45234;48.148;17.128;2023-04-03T15:41:42;4.70;;;1.73;;
24739;SDS011;45234;48.148;17.128;2023-04-03T15:44:10;4.03;;;1.35;;
24739;SDS011;45234;48.148;17.128;2023-04-03T15:46:40;5.47;;;1.50;;
24739;SDS011;45234;48.148;17.128;2023-04-03T15:49:07;5.43;;;1.75;;
24739;SDS011;45234;48.148;17.128;2023-04-03T15:51:34;4.28;;;1.67;;
24739;SDS011;45234;48.148;17.128;2023-04-03T15:54:02;4.13;;;2.03;;
24739;SDS011;45234;48.148;17.128;2023-04-03T15:56:28;3.97;;;1.48;;
24739;SDS011;45234;48.148;17.128;2023-04-03T15:58:55;7.45;;;1.40;;
24739;SDS011;45234;48.148;17.128;2023-04-03T16:01:24;3.25;;;1.52;;
24739;SDS011;45234;48.148;17.128;2023-04-03T16:03:51;3.58;;;1.45;;
24739;SDS011;45234;48.148;17.128;2023-04-03T16:06:18;3.30;;;1.52;;
24739;SDS011;45234;48.148;17.128;2023-04-03T16:08:46;6.78;;;1.90;;
24739;SDS011;45234;48.148;17.128;2023-04-03T16:11:14;3.08;;;1.42;;
24739;SDS011;45234;48.148;17.128;2023-04-03T16:13:41;2.15;;;1.10;;
24739;SDS011;45234;48.148;17.128;2023-04-03T16:16:08;9.85;;;1.50;;
24739;SDS011;45234;48.148;17.128;2023-04-03T16:18:35;4.28;;;1.85;;
24739;SDS011;45234;48.148;17.128;2023-04-03T16:21:02;5.10;;;1.73;;
24739;SDS011;45234;48.148;17.128;2023-04-03T16:23:31;3.72;;;1.23;;
24739;SDS011;45234;48.148;17.128;2023-04-03T16:25:58;5.65;;;1.90;;
24739;SDS011;45234;48.148;17.128;2023-04-03T16:28:25;4.22;;;1.77;;
24739;SDS011;45234;48.148;17.128;2023-04-03T16:30:52;2.90;;;1.40;;
24739;SDS011;45234;48.148;17.128;2023-04-03T16:33:19;3.85;;;1.35;;
24739;SDS011;45234;48.148;17.128;2023-04-03T16:35:48;3.65;;;1.58;;
24739;SDS011;45234;48.148;17.128;2023-04-03T16:38:16;2.47;;;1.35;;